sensor_id;sensor_type;location;lat;lon;timestamp;temperature;humidity
12841;DHT22;6487;48.626;12.486;2023-11-21T00:00:09;6.90;99.90
12841;DHT22;6487;48.626;12.486;2023-11-21T00:02:40;7.00;99.90
12841;DHT22;6487;48.626;12.486;2023-11-21T00:05:09;7.00;99.90
12841;DHT22;6487;48.626;12.486;2023-11-21T00:07:41;7.00;99.90
12841;DHT22;6487;48.626;12.486;2023-11-21T00:10:10;7.00;99.90
12841;DHT22;6487;48.626;12.486;2023-11-21T00:12:42;7.00;99.90
12841;DHT22;6487;48.626;12.486;2023-11-21T00:15:10;7.10;99.90
12841;DHT22;6487;48.626;12.486;2023-11-21T00:17:39;7.00;99.90
12841;DHT22;6487;48.626;12.486;2023-11-21T00:20:11;7.00;99.90
12841;DHT22;6487;48.626;12.486;2023-11-21T00:22:41;7.00;99.90
12841;DHT22;6487;48.626;12.486;2023-11-21T00:25:10;7.10;99.90
12841;DHT22;6487;48.626;12.486;2023-11-21T00:27:39;7.10;99.90
12841;DHT22;6487;48.626;12.486;2023-11-21T00:30:09;7.00;99.90
12841;DHT22;6487;48.626;12.486;2023-11-21T00:32:38;7.10;99.90
12841;DHT22;6487;48.626;12.486;2023-11-21T00:35:07;7.00;99.90
12841;DHT22;6487;48.626;12.486;2023-11-21T00:37:38;7.00;99.90
12841;DHT22;6487;48.626;12.486;2023-11-21T00:40:08;7.00;99.90
12841;DHT22;6487;48.626;12.486;2023-11-21T00:42:37;7.00;99.90
12841;DHT22;6487;48.626;12.486;2023-11-21T00:45:07;6.90;99.90
12841;DHT22;6487;48.626;12.486;2023-11-21T00:47:36;6.90;99.90
12841;DHT22;6487;48.626;12.486;2023-11-21T00:50:06;6.90;99.90
12841;DHT22;6487;48.626;12.486;2023-11-21T00:52:35;6.90;99.90
12841;DHT22;6487;48.626;12.486;2023-11-21T00:55:06;6.80;99.90
12841;DHT22;6487;48.626;12.486;2023-11-21T00:57:36;6.80;99.90
12841;DHT22;6487;48.626;12.486;2023-11-21T01:00:06;6.70;99.90
12841;DHT22;6487;48.626;12.486;2023-11-21T01:02:37;6.70;99.90
12841;DHT22;6487;48.626;12.486;2023-11-21T01:05:06;6.70;99.90
12841;DHT22;6487;48.626;12.486;2023-11-21T01:07:36;6.70;99.90
12841;DHT22;6487;48.626;12.486;2023-11-21T01:10:07;6.70;99.90
12841;DHT22;6487;48.626;12.486;2023-11-21T01:12:37;6.60;99.90
12841;DHT22;6487;48.626;12.486;2023-11-21T01:15:07;6.60;99.90
12841;DHT22;6487;48.626;12.486;2023-11-21T01:17:36;6.60;99.90
12841;DHT22;6487;48.626;12.486;2023-11-21T01:20:06;6.60;99.90
12841;DHT22;6487;48.626;12.486;2023-11-21T01:22:40;6.60;99.90
12841;DHT22;6487;48.626;12.486;2023-11-21T01:25:11;6.60;99.90
12841;DHT22;6487;48.626;12.486;2023-11-21T01:27:41;6.60;99.90
12841;DHT22;6487;48.626;12.486;2023-11-21T01:30:10;6.60;99.90
12841;DHT22;6487;48.626;12.486;2023-11-21T01:32:39;6.60;99.90
12841;DHT22;6487;48.626;12.486;2023-11-21T01:35:08;6.60;99.90
12841;DHT22;6487;48.626;12.486;2023-11-21T01:37:37;6.60;99.90
12841;DHT22;6487;48.626;12.486;2023-11-21T01:40:07;6.60;99.90
12841;DHT22;6487;48.626;12.486;2023-11-21T01:42:43;6.70;99.90
12841;DHT22;6487;48.626;12.486;2023-11-21T01:45:14;6.70;99.90
12841;DHT22;6487;48.626;12.486;2023-11-21T01:47:44;6.80;99.90
12841;DHT22;6487;48.626;12.486;2023-11-21T01:50:15;6.90;99.90
12841;DHT22;6487;48.626;12.486;2023-11-21T01:52:46;7.00;99.90
12841;DHT22;6487;48.626;12.486;2023-11-21T01:55:17;7.00;99.90
12841;DHT22;6487;48.626;12.486;2023-11-21T01:57:56;7.10;99.90
12841;DHT22;6487;48.626;12.486;2023-11-21T02:00:25;7.10;99.90
12841;DHT22;6487;48.626;12.486;2023-11-21T02:02:56;7.10;99.90
12841;DHT22;6487;48.626;12.486;2023-11-21T02:05:25;7.10;99.90
12841;DHT22;6487;48.626;12.486;2023-11-21T02:07:53;7.10;99.90
12841;DHT22;6487;48.626;12.486;2023-11-21T02:10:23;7.10;99.90
12841;DHT22;6487;48.626;12.486;2023-11-21T02:12:52;7.20;99.90
12841;DHT22;6487;48.626;12.486;2023-11-21T02:15:22;7.10;99.90
12841;DHT22;6487;48.626;12.486;2023-11-21T02:17:53;7.20;99.90
12841;DHT22;6487;48.626;12.486;2023-11-21T02:20:22;7.20;99.90
12841;DHT22;6487;48.626;12.486;2023-11-21T02:22:55;7.30;99.90
12841;DHT22;6487;48.626;12.486;2023-11-21T02:25:27;7.30;99.90
12841;DHT22;6487;48.626;12.486;2023-11-21T02:27:58;7.20;99.90
12841;DHT22;6487;48.626;12.486;2023-11-21T02:30:28;7.20;99.90
12841;DHT22;6487;48.626;12.486;2023-11-21T02:32:59;7.20;99.90
12841;DHT22;6487;48.626;12.486;2023-11-21T02:35:28;7.30;99.90
12841;DHT22;6487;48.626;12.486;2023-11-21T02:38:00;7.30;99.90
12841;DHT22;6487;48.626;12.486;2023-11-21T02:40:29;7.30;99.90
12841;DHT22;6487;48.626;12.486;2023-11-21T02:42:58;7.30;99.90
12841;DHT22;6487;48.626;12.486;2023-11-21T02:45:26;7.40;99.90
12841;DHT22;6487;48.626;12.486;2023-11-21T02:47:55;7.40;99.90
12841;DHT22;6487;48.626;12.486;2023-11-21T02:50:25;7.40;99.90
12841;DHT22;6487;48.626;12.486;2023-11-21T02:52:54;7.40;99.90
12841;DHT22;6487;48.626;12.486;2023-11-21T02:55:26;7.40;99.90
12841;DHT22;6487;48.626;12.486;2023-11-21T02:57:55;7.40;99.90
12841;DHT22;6487;48.626;12.486;2023-11-21T03:00:24;7.40;99.90
12841;DHT22;6487;48.626;12.486;2023-11-21T03:02:55;7.40;99.90
12841;DHT22;6487;48.626;12.486;2023-11-21T03:05:24;7.40;99.90
12841;DHT22;6487;48.626;12.486;2023-11-21T03:07:53;7.40;99.90
12841;DHT22;6487;48.626;12.486;2023-11-21T03:10:22;7.50;99.90
12841;DHT22;6487;48.626;12.486;2023-11-21T03:12:52;7.50;99.90
12841;DHT22;6487;48.626;12.486;2023-11-21T03:15:20;7.50;99.90
12841;DHT22;6487;48.626;12.486;2023-11-21T03:17:49;7.50;99.90
12841;DHT22;6487;48.626;12.486;2023-11-21T03:20:17;7.50;99.90
12841;DHT22;6487;48.626;12.486;2023-11-21T03:22:46;7.60;99.90
12841;DHT22;6487;48.626;12.486;2023-11-21T03:25:15;7.50;99.90
12841;DHT22;6487;48.626;12.486;2023-11-21T03:27:44;7.50;99.90
12841;DHT22;6487;48.626;12.486;2023-11-21T03:30:14;7.50;99.90
12841;DHT22;6487;48.626;12.486;2023-11-21T03:32:43;7.60;99.90
12841;DHT22;6487;48.626;12.486;2023-11-21T03:35:12;7.60;99.90
12841;DHT22;6487;48.626;12.486;2023-11-21T03:37:40;7.60;99.90
12841;DHT22;6487;48.626;12.486;2023-11-21T03:40:11;7.60;99.90
12841;DHT22;6487;48.626;12.486;2023-11-21T03:42:41;7.60;99.90
12841;DHT22;6487;48.626;12.486;2023-11-21T03:45:09;7.60;99.90
12841;DHT22;6487;48.626;12.486;2023-11-21T03:47:41;7.60;99.90
12841;DHT22;6487;48.626;12.486;2023-11-21T03:50:10;7.70;99.90
12841;DHT22;6487;48.626;12.486;2023-11-21T03:52:39;7.60;99.90
12841;DHT22;6487;48.626;12.486;2023-11-21T03:55:10;7.60;99.90
12841;DHT22;6487;48.626;12.486;2023-11-21T03:57:39;7.60;99.90
12841;DHT22;6487;48.626;12.486;2023-11-21T04:00:08;7.60;99.90
12841;DHT22;6487;48.626;12.486;2023-11-21T04:02:37;7.70;99.90
12841;DHT22;6487;48.626;12.486;2023-11-21T04:05:08;7.70;99.90
12841;DHT22;6487;48.626;12.486;2023-11-21T04:07:37;7.60;99.90
12841;DHT22;6487;48.626;12.486;2023-11-21T04:10:07;7.70;99.90
12841;DHT22;6487;48.626;12.486;2023-11-21T04:12:36;7.60;99.90
12841;DHT22;6487;48.626;12.486;2023-11-21T04:15:06;7.50;99.90
12841;DHT22;6487;48.626;12.486;2023-11-21T04:17:36;7.60;99.90
12841;DHT22;6487;48.626;12.486;2023-11-21T04:20:06;7.50;99.90
12841;DHT22;6487;48.626;12.486;2023-11-21T04:22:38;7.40;99.90
12841;DHT22;6487;48.626;12.486;2023-11-21T04:25:12;7.30;99.90
12841;DHT22;6487;48.626;12.486;2023-11-21T04:27:42;7.30;99.90
12841;DHT22;6487;48.626;12.486;2023-11-21T04:30:12;7.40;99.90
12841;DHT22;6487;48.626;12.486;2023-11-21T04:32:41;7.40;99.90
12841;DHT22;6487;48.626;12.486;2023-11-21T04:35:11;7.40;99.90
12841;DHT22;6487;48.626;12.486;2023-11-21T04:37:40;7.60;99.90
12841;DHT22;6487;48.626;12.486;2023-11-21T04:40:09;7.50;99.90
12841;DHT22;6487;48.626;12.486;2023-11-21T04:42:39;7.50;99.90
12841;DHT22;6487;48.626;12.486;2023-11-21T04:45:08;7.50;99.90
12841;DHT22;6487;48.626;12.486;2023-11-21T04:47:39;7.40;99.90
12841;DHT22;6487;48.626;12.486;2023-11-21T04:50:09;7.50;99.90
12841;DHT22;6487;48.626;12.486;2023-11-21T04:52:39;7.50;99.90
12841;DHT22;6487;48.626;12.486;2023-11-21T04:55:08;7.40;99.90
12841;DHT22;6487;48.626;12.486;2023-11-21T04:57:38;7.40;99.90
12841;DHT22;6487;48.626;12.486;2023-11-21T05:00:09;7.50;99.90
12841;DHT22;6487;48.626;12.486;2023-11-21T05:02:40;7.50;99.90
12841;DHT22;6487;48.626;12.486;2023-11-21T05:05:09;7.50;99.90
12841;DHT22;6487;48.626;12.486;2023-11-21T05:07:40;7.50;99.90
12841;DHT22;6487;48.626;12.486;2023-11-21T05:10:12;7.60;99.90
12841;DHT22;6487;48.626;12.486;2023-11-21T05:12:42;7.60;99.90
12841;DHT22;6487;48.626;12.486;2023-11-21T05:15:14;7.60;99.90
12841;DHT22;6487;48.626;12.486;2023-11-21T05:17:44;7.60;99.90
12841;DHT22;6487;48.626;12.486;2023-11-21T05:20:15;7.60;99.90
12841;DHT22;6487;48.626;12.486;2023-11-21T05:22:49;7.70;99.90
12841;DHT22;6487;48.626;12.486;2023-11-21T05:25:18;7.50;99.90
12841;DHT22;6487;48.626;12.486;2023-11-21T05:27:46;7.50;99.90
12841;DHT22;6487;48.626;12.486;2023-11-21T05:30:15;7.60;99.90
12841;DHT22;6487;48.626;12.486;2023-11-21T05:32:44;7.60;99.90
12841;DHT22;6487;48.626;12.486;2023-11-21T05:35:13;7.70;99.90
12841;DHT22;6487;48.626;12.486;2023-11-21T05:37:44;7.70;99.90
12841;DHT22;6487;48.626;12.486;2023-11-21T05:40:15;7.60;99.90
12841;DHT22;6487;48.626;12.486;2023-11-21T05:42:45;7.70;99.90
12841;DHT22;6487;48.626;12.486;2023-11-21T05:45:13;7.70;99.90
12841;DHT22;6487;48.626;12.486;2023-11-21T05:47:43;7.70;99.90
12841;DHT22;6487;48.626;12.486;2023-11-21T05:50:15;7.60;99.90
12841;DHT22;6487;48.626;12.486;2023-11-21T05:52:45;7.60;99.90
12841;DHT22;6487;48.626;12.486;2023-11-21T05:55:16;7.60;99.90
12841;DHT22;6487;48.626;12.486;2023-11-21T05:57:45;7.60;99.90
12841;DHT22;6487;48.626;12.486;2023-11-21T06:00:14;7.60;99.90
12841;DHT22;6487;48.626;12.486;2023-11-21T06:02:48;7.60;99.90
12841;DHT22;6487;48.626;12.486;2023-11-21T06:05:22;7.70;99.90
12841;DHT22;6487;48.626;12.486;2023-11-21T06:07:54;7.70;99.90
12841;DHT22;6487;48.626;12.486;2023-11-21T06:10:27;7.70;99.90
12841;DHT22;6487;48.626;12.486;2023-11-21T06:12:56;7.70;99.90
12841;DHT22;6487;48.626;12.486;2023-11-21T06:15:30;7.70;99.90
12841;DHT22;6487;48.626;12.486;2023-11-21T06:17:58;7.70;99.90
12841;DHT22;6487;48.626;12.486;2023-11-21T06:20:27;7.70;99.90
12841;DHT22;6487;48.626;12.486;2023-11-21T06:22:55;7.70;99.90
12841;DHT22;6487;48.626;12.486;2023-11-21T06:25:24;7.70;99.90
12841;DHT22;6487;48.626;12.486;2023-11-21T06:27:54;7.70;99.90
12841;DHT22;6487;48.626;12.486;2023-11-21T06:30:23;7.70;99.90
12841;DHT22;6487;48.626;12.486;2023-11-21T06:32:51;7.80;99.90
12841;DHT22;6487;48.626;12.486;2023-11-21T06:35:21;7.80;99.90
12841;DHT22;6487;48.626;12.486;2023-11-21T06:37:49;7.80;99.90
12841;DHT22;6487;48.626;12.486;2023-11-21T06:40:19;7.80;99.90
12841;DHT22;6487;48.626;12.486;2023-11-21T06:42:48;7.70;99.90
12841;DHT22;6487;48.626;12.486;2023-11-21T06:45:19;7.70;99.90
12841;DHT22;6487;48.626;12.486;2023-11-21T06:47:48;7.70;99.90
12841;DHT22;6487;48.626;12.486;2023-11-21T06:50:17;7.80;99.90
12841;DHT22;6487;48.626;12.486;2023-11-21T06:52:46;7.70;99.90
12841;DHT22;6487;48.626;12.486;2023-11-21T06:55:15;7.80;99.90
12841;DHT22;6487;48.626;12.486;2023-11-21T06:57:44;7.80;99.90
12841;DHT22;6487;48.626;12.486;2023-11-21T07:00:15;7.80;99.90
12841;DHT22;6487;48.626;12.486;2023-11-21T07:02:48;7.80;99.90
12841;DHT22;6487;48.626;12.486;2023-11-21T07:05:17;7.80;99.90
12841;DHT22;6487;48.626;12.486;2023-11-21T07:07:49;7.90;99.90
12841;DHT22;6487;48.626;12.486;2023-11-21T07:10:19;7.90;99.90
12841;DHT22;6487;48.626;12.486;2023-11-21T07:12:48;7.90;99.90
12841;DHT22;6487;48.626;12.486;2023-11-21T07:15:18;7.90;99.90
12841;DHT22;6487;48.626;12.486;2023-11-21T07:17:48;7.90;99.90
12841;DHT22;6487;48.626;12.486;2023-11-21T07:20:16;8.00;99.90
12841;DHT22;6487;48.626;12.486;2023-11-21T07:22:45;8.00;99.90
12841;DHT22;6487;48.626;12.486;2023-11-21T07:25:14;8.00;99.90
12841;DHT22;6487;48.626;12.486;2023-11-21T07:27:43;8.10;99.90
12841;DHT22;6487;48.626;12.486;2023-11-21T07:30:13;8.10;99.90
12841;DHT22;6487;48.626;12.486;2023-11-21T07:32:41;8.10;99.90
12841;DHT22;6487;48.626;12.486;2023-11-21T07:35:15;8.10;99.90
12841;DHT22;6487;48.626;12.486;2023-11-21T07:37:46;8.10;99.90
12841;DHT22;6487;48.626;12.486;2023-11-21T07:40:16;8.10;99.90
12841;DHT22;6487;48.626;12.486;2023-11-21T07:42:44;8.20;99.90
12841;DHT22;6487;48.626;12.486;2023-11-21T07:45:13;8.20;99.90
12841;DHT22;6487;48.626;12.486;2023-11-21T07:47:42;8.20;99.90
12841;DHT22;6487;48.626;12.486;2023-11-21T07:50:11;8.30;99.90
12841;DHT22;6487;48.626;12.486;2023-11-21T07:52:42;8.30;99.90
12841;DHT22;6487;48.626;12.486;2023-11-21T07:55:10;8.30;99.90
12841;DHT22;6487;48.626;12.486;2023-11-21T07:57:39;8.30;99.90
12841;DHT22;6487;48.626;12.486;2023-11-21T08:00:08;8.30;99.90
12841;DHT22;6487;48.626;12.486;2023-11-21T08:02:39;8.30;99.90
12841;DHT22;6487;48.626;12.486;2023-11-21T08:05:10;8.30;99.90
12841;DHT22;6487;48.626;12.486;2023-11-21T08:07:52;8.40;99.90
12841;DHT22;6487;48.626;12.486;2023-11-21T08:10:20;8.40;99.90
12841;DHT22;6487;48.626;12.486;2023-11-21T08:12:49;8.40;99.90
12841;DHT22;6487;48.626;12.486;2023-11-21T08:15:18;8.50;99.90
12841;DHT22;6487;48.626;12.486;2023-11-21T08:17:46;8.40;99.90
12841;DHT22;6487;48.626;12.486;2023-11-21T08:20:15;8.40;99.90
12841;DHT22;6487;48.626;12.486;2023-11-21T08:22:45;8.40;99.90
12841;DHT22;6487;48.626;12.486;2023-11-21T08:25:17;8.50;99.90
12841;DHT22;6487;48.626;12.486;2023-11-21T08:27:47;8.50;99.90
12841;DHT22;6487;48.626;12.486;2023-11-21T08:30:16;8.50;99.90
12841;DHT22;6487;48.626;12.486;2023-11-21T08:32:46;8.60;99.90
12841;DHT22;6487;48.626;12.486;2023-11-21T08:35:15;8.60;99.90
12841;DHT22;6487;48.626;12.486;2023-11-21T08:37:44;8.60;99.90
12841;DHT22;6487;48.626;12.486;2023-11-21T08:40:13;8.60;99.90
12841;DHT22;6487;48.626;12.486;2023-11-21T08:42:45;8.60;99.90
12841;DHT22;6487;48.626;12.486;2023-11-21T08:45:14;8.70;99.90
12841;DHT22;6487;48.626;12.486;2023-11-21T08:47:44;8.70;99.90
12841;DHT22;6487;48.626;12.486;2023-11-21T08:50:14;8.70;99.90
12841;DHT22;6487;48.626;12.486;2023-11-21T08:52:43;8.70;99.90
12841;DHT22;6487;48.626;12.486;2023-11-21T08:55:13;8.70;99.90
12841;DHT22;6487;48.626;12.486;2023-11-21T08:57:45;8.80;99.90
12841;DHT22;6487;48.626;12.486;2023-11-21T09:00:14;8.80;99.90
12841;DHT22;6487;48.626;12.486;2023-11-21T09:02:44;8.80;99.90
12841;DHT22;6487;48.626;12.486;2023-11-21T09:05:14;8.80;99.90
12841;DHT22;6487;48.626;12.486;2023-11-21T09:07:43;8.80;99.90
12841;DHT22;6487;48.626;12.486;2023-11-21T09:10:13;8.80;99.90
12841;DHT22;6487;48.626;12.486;2023-11-21T09:12:41;8.90;99.90
12841;DHT22;6487;48.626;12.486;2023-11-21T09:15:12;8.80;99.90
12841;DHT22;6487;48.626;12.486;2023-11-21T09:17:41;8.90;99.90
12841;DHT22;6487;48.626;12.486;2023-11-21T09:20:12;8.90;99.90
12841;DHT22;6487;48.626;12.486;2023-11-21T09:22:42;8.90;99.90
12841;DHT22;6487;48.626;12.486;2023-11-21T09:25:12;8.90;99.90
12841;DHT22;6487;48.626;12.486;2023-11-21T09:27:40;9.00;99.90
12841;DHT22;6487;48.626;12.486;2023-11-21T09:30:09;9.00;99.90
12841;DHT22;6487;48.626;12.486;2023-11-21T09:32:42;9.00;99.90
12841;DHT22;6487;48.626;12.486;2023-11-21T09:35:12;9.00;99.90
12841;DHT22;6487;48.626;12.486;2023-11-21T09:37:43;9.10;99.90
12841;DHT22;6487;48.626;12.486;2023-11-21T09:40:21;9.10;99.90
12841;DHT22;6487;48.626;12.486;2023-11-21T09:42:54;9.10;99.90
12841;DHT22;6487;48.626;12.486;2023-11-21T09:45:28;9.00;99.90
12841;DHT22;6487;48.626;12.486;2023-11-21T09:47:59;9.00;99.90
12841;DHT22;6487;48.626;12.486;2023-11-21T09:50:28;8.90;99.90
12841;DHT22;6487;48.626;12.486;2023-11-21T09:53:08;9.00;99.90
12841;DHT22;6487;48.626;12.486;2023-11-21T09:55:43;9.10;99.90
12841;DHT22;6487;48.626;12.486;2023-11-21T09:58:13;9.10;99.90
12841;DHT22;6487;48.626;12.486;2023-11-21T10:00:44;9.00;99.90
12841;DHT22;6487;48.626;12.486;2023-11-21T10:03:15;9.10;99.90
12841;DHT22;6487;48.626;12.486;2023-11-21T10:05:45;9.10;99.90
12841;DHT22;6487;48.626;12.486;2023-11-21T10:08:14;9.20;99.90
12841;DHT22;6487;48.626;12.486;2023-11-21T10:10:44;9.10;99.90
12841;DHT22;6487;48.626;12.486;2023-11-21T10:13:15;9.20;99.90
12841;DHT22;6487;48.626;12.486;2023-11-21T10:15:50;9.20;99.90
12841;DHT22;6487;48.626;12.486;2023-11-21T10:18:22;9.00;99.90
12841;DHT22;6487;48.626;12.486;2023-11-21T10:20:53;9.10;99.90
12841;DHT22;6487;48.626;12.486;2023-11-21T10:23:22;9.20;99.90
12841;DHT22;6487;48.626;12.486;2023-11-21T10:25:52;9.30;99.90
12841;DHT22;6487;48.626;12.486;2023-11-21T10:28:26;9.20;99.90
12841;DHT22;6487;48.626;12.486;2023-11-21T10:30:54;9.30;99.90
12841;DHT22;6487;48.626;12.486;2023-11-21T10:33:28;9.20;99.90
12841;DHT22;6487;48.626;12.486;2023-11-21T10:35:57;9.30;99.90
12841;DHT22;6487;48.626;12.486;2023-11-21T10:38:28;9.40;99.90
12841;DHT22;6487;48.626;12.486;2023-11-21T10:40:57;9.50;99.90
12841;DHT22;6487;48.626;12.486;2023-11-21T10:43:26;9.40;99.90
12841;DHT22;6487;48.626;12.486;2023-11-21T10:45:58;9.50;99.90
12841;DHT22;6487;48.626;12.486;2023-11-21T10:48:29;9.60;99.90
12841;DHT22;6487;48.626;12.486;2023-11-21T10:50:56;9.50;99.90
12841;DHT22;6487;48.626;12.486;2023-11-21T10:53:28;9.50;99.90
12841;DHT22;6487;48.626;12.486;2023-11-21T10:56:02;9.50;99.90
12841;DHT22;6487;48.626;12.486;2023-11-21T10:58:35;9.60;99.90
12841;DHT22;6487;48.626;12.486;2023-11-21T11:01:06;9.60;99.90
12841;DHT22;6487;48.626;12.486;2023-11-21T11:03:40;9.50;99.90
12841;DHT22;6487;48.626;12.486;2023-11-21T11:06:09;9.50;99.90
12841;DHT22;6487;48.626;12.486;2023-11-21T11:08:40;9.50;99.90
12841;DHT22;6487;48.626;12.486;2023-11-21T11:11:09;9.50;99.90
12841;DHT22;6487;48.626;12.486;2023-11-21T11:13:39;9.50;99.90
12841;DHT22;6487;48.626;12.486;2023-11-21T11:16:12;9.50;99.90
12841;DHT22;6487;48.626;12.486;2023-11-21T11:18:46;9.50;99.90
12841;DHT22;6487;48.626;12.486;2023-11-21T11:21:25;9.50;99.90
12841;DHT22;6487;48.626;12.486;2023-11-21T11:24:11;9.50;99.90
12841;DHT22;6487;48.626;12.486;2023-11-21T11:26:50;9.60;99.90
12841;DHT22;6487;48.626;12.486;2023-11-21T11:29:28;9.60;99.90
12841;DHT22;6487;48.626;12.486;2023-11-21T11:32:08;9.60;99.90
12841;DHT22;6487;48.626;12.486;2023-11-21T11:34:47;9.60;99.90
12841;DHT22;6487;48.626;12.486;2023-11-21T11:37:21;9.60;99.90
12841;DHT22;6487;48.626;12.486;2023-11-21T11:39:51;9.60;99.90
12841;DHT22;6487;48.626;12.486;2023-11-21T11:42:21;9.50;99.90
12841;DHT22;6487;48.626;12.486;2023-11-21T11:44:51;9.60;99.90
12841;DHT22;6487;48.626;12.486;2023-11-21T11:47:24;9.70;99.90
12841;DHT22;6487;48.626;12.486;2023-11-21T11:50:11;9.70;99.90
12841;DHT22;6487;48.626;12.486;2023-11-21T11:52:45;9.70;99.90
12841;DHT22;6487;48.626;12.486;2023-11-21T11:55:16;9.70;99.90
12841;DHT22;6487;48.626;12.486;2023-11-21T11:57:47;9.70;99.90
12841;DHT22;6487;48.626;12.486;2023-11-21T12:00:20;9.70;99.90
12841;DHT22;6487;48.626;12.486;2023-11-21T12:02:53;9.70;99.90
12841;DHT22;6487;48.626;12.486;2023-11-21T12:05:26;9.70;99.90
12841;DHT22;6487;48.626;12.486;2023-11-21T12:07:56;9.70;99.90
12841;DHT22;6487;48.626;12.486;2023-11-21T12:10:27;9.80;99.90
12841;DHT22;6487;48.626;12.486;2023-11-21T12:13:00;9.80;99.90
12841;DHT22;6487;48.626;12.486;2023-11-21T12:15:29;9.80;99.90
12841;DHT22;6487;48.626;12.486;2023-11-21T12:17:58;9.80;99.90
12841;DHT22;6487;48.626;12.486;2023-11-21T12:20:28;9.90;99.90
12841;DHT22;6487;48.626;12.486;2023-11-21T12:23:01;9.90;99.90
12841;DHT22;6487;48.626;12.486;2023-11-21T12:25:31;9.80;99.90
12841;DHT22;6487;48.626;12.486;2023-11-21T12:28:02;9.80;99.90
12841;DHT22;6487;48.626;12.486;2023-11-21T12:30:32;9.80;99.90
12841;DHT22;6487;48.626;12.486;2023-11-21T12:33:03;9.90;99.90
12841;DHT22;6487;48.626;12.486;2023-11-21T12:35:35;9.80;99.90
12841;DHT22;6487;48.626;12.486;2023-11-21T12:38:05;9.80;99.90
12841;DHT22;6487;48.626;12.486;2023-11-21T12:40:36;9.80;99.90
12841;DHT22;6487;48.626;12.486;2023-11-21T12:43:04;9.90;99.90
12841;DHT22;6487;48.626;12.486;2023-11-21T12:45:34;9.90;99.90
12841;DHT22;6487;48.626;12.486;2023-11-21T12:48:05;9.90;99.90
12841;DHT22;6487;48.626;12.486;2023-11-21T12:50:38;9.80;99.90
12841;DHT22;6487;48.626;12.486;2023-11-21T12:53:08;9.80;99.90
12841;DHT22;6487;48.626;12.486;2023-11-21T12:55:39;9.70;99.90
12841;DHT22;6487;48.626;12.486;2023-11-21T12:58:09;9.60;99.90
12841;DHT22;6487;48.626;12.486;2023-11-21T13:00:42;9.60;99.90
12841;DHT22;6487;48.626;12.486;2023-11-21T13:03:12;9.70;99.90
12841;DHT22;6487;48.626;12.486;2023-11-21T13:05:47;9.60;99.90
12841;DHT22;6487;48.626;12.486;2023-11-21T13:08:20;9.60;99.90
12841;DHT22;6487;48.626;12.486;2023-11-21T13:10:52;9.70;99.90
12841;DHT22;6487;48.626;12.486;2023-11-21T13:13:25;9.70;99.90
12841;DHT22;6487;48.626;12.486;2023-11-21T13:15:56;9.80;99.90
12841;DHT22;6487;48.626;12.486;2023-11-21T13:18:28;9.80;99.90
12841;DHT22;6487;48.626;12.486;2023-11-21T13:21:01;9.80;99.90
12841;DHT22;6487;48.626;12.486;2023-11-21T13:23:35;9.70;99.90
12841;DHT22;6487;48.626;12.486;2023-11-21T13:26:05;9.60;99.90
12841;DHT22;6487;48.626;12.486;2023-11-21T13:28:36;9.60;99.90
12841;DHT22;6487;48.626;12.486;2023-11-21T13:31:05;9.50;99.90
12841;DHT22;6487;48.626;12.486;2023-11-21T13:33:48;9.50;99.90
12841;DHT22;6487;48.626;12.486;2023-11-21T13:36:25;9.60;99.90
12841;DHT22;6487;48.626;12.486;2023-11-21T13:38:57;9.70;99.90
12841;DHT22;6487;48.626;12.486;2023-11-21T13:41:31;9.60;99.90
12841;DHT22;6487;48.626;12.486;2023-11-21T13:44:00;9.60;99.90
12841;DHT22;6487;48.626;12.486;2023-11-21T13:46:41;9.50;99.90
12841;DHT22;6487;48.626;12.486;2023-11-21T13:49:10;9.60;99.90
12841;DHT22;6487;48.626;12.486;2023-11-21T13:51:41;9.50;99.90
12841;DHT22;6487;48.626;12.486;2023-11-21T13:54:12;9.50;99.90
12841;DHT22;6487;48.626;12.486;2023-11-21T13:56:41;9.50;99.90
12841;DHT22;6487;48.626;12.486;2023-11-21T13:59:12;9.60;99.90
12841;DHT22;6487;48.626;12.486;2023-11-21T14:01:48;9.50;99.90
12841;DHT22;6487;48.626;12.486;2023-11-21T14:04:25;9.60;99.90
12841;DHT22;6487;48.626;12.486;2023-11-21T14:07:15;9.50;99.90
12841;DHT22;6487;48.626;12.486;2023-11-21T14:09:57;9.40;99.90
12841;DHT22;6487;48.626;12.486;2023-11-21T14:12:26;9.50;99.90
12841;DHT22;6487;48.626;12.486;2023-11-21T14:14:55;9.60;99.90
12841;DHT22;6487;48.626;12.486;2023-11-21T14:17:23;9.60;99.90
12841;DHT22;6487;48.626;12.486;2023-11-21T14:19:52;9.60;99.90
12841;DHT22;6487;48.626;12.486;2023-11-21T14:22:24;9.70;99.90
12841;DHT22;6487;48.626;12.486;2023-11-21T14:24:53;9.70;99.90
12841;DHT22;6487;48.626;12.486;2023-11-21T14:27:25;9.70;99.90
12841;DHT22;6487;48.626;12.486;2023-11-21T14:29:54;9.70;99.90
12841;DHT22;6487;48.626;12.486;2023-11-21T14:32:24;9.70;99.90
12841;DHT22;6487;48.626;12.486;2023-11-21T14:34:53;9.70;99.90
12841;DHT22;6487;48.626;12.486;2023-11-21T14:37:21;9.80;99.90
12841;DHT22;6487;48.626;12.486;2023-11-21T14:39:52;9.70;99.90
12841;DHT22;6487;48.626;12.486;2023-11-21T14:42:22;9.80;99.90
12841;DHT22;6487;48.626;12.486;2023-11-21T14:44:56;9.70;99.90
12841;DHT22;6487;48.626;12.486;2023-11-21T14:47:30;9.70;99.90
12841;DHT22;6487;48.626;12.486;2023-11-21T14:49:59;9.70;99.90
12841;DHT22;6487;48.626;12.486;2023-11-21T14:52:42;9.70;99.90
12841;DHT22;6487;48.626;12.486;2023-11-21T14:55:23;9.50;99.90
12841;DHT22;6487;48.626;12.486;2023-11-21T14:57:58;9.60;99.90
12841;DHT22;6487;48.626;12.486;2023-11-21T15:00:30;9.70;99.90
12841;DHT22;6487;48.626;12.486;2023-11-21T15:03:08;9.70;99.90
12841;DHT22;6487;48.626;12.486;2023-11-21T15:05:37;9.70;99.90
12841;DHT22;6487;48.626;12.486;2023-11-21T15:08:07;9.70;99.90
12841;DHT22;6487;48.626;12.486;2023-11-21T15:10:48;9.70;99.90
12841;DHT22;6487;48.626;12.486;2023-11-21T15:13:21;9.80;99.90
12841;DHT22;6487;48.626;12.486;2023-11-21T15:15:51;9.70;99.90
12841;DHT22;6487;48.626;12.486;2023-11-21T15:18:21;9.60;99.90
12841;DHT22;6487;48.626;12.486;2023-11-21T15:20:51;9.60;99.90
12841;DHT22;6487;48.626;12.486;2023-11-21T15:23:20;9.60;99.90
12841;DHT22;6487;48.626;12.486;2023-11-21T15:25:49;9.60;99.90
12841;DHT22;6487;48.626;12.486;2023-11-21T15:28:19;9.50;99.90
12841;DHT22;6487;48.626;12.486;2023-11-21T15:30:48;9.50;99.90
12841;DHT22;6487;48.626;12.486;2023-11-21T15:33:18;9.60;99.90
12841;DHT22;6487;48.626;12.486;2023-11-21T15:35:47;9.60;99.90
12841;DHT22;6487;48.626;12.486;2023-11-21T15:38:15;9.60;99.90
12841;DHT22;6487;48.626;12.486;2023-11-21T15:40:44;9.60;99.90
12841;DHT22;6487;48.626;12.486;2023-11-21T15:43:14;9.60;99.90
12841;DHT22;6487;48.626;12.486;2023-11-21T15:45:42;9.60;99.90
12841;DHT22;6487;48.626;12.486;2023-11-21T15:48:11;9.40;99.90
12841;DHT22;6487;48.626;12.486;2023-11-21T15:50:40;9.40;99.90
12841;DHT22;6487;48.626;12.486;2023-11-21T15:53:10;9.40;99.90
12841;DHT22;6487;48.626;12.486;2023-11-21T15:55:38;9.50;99.90
12841;DHT22;6487;48.626;12.486;2023-11-21T15:58:09;9.50;99.90
12841;DHT22;6487;48.626;12.486;2023-11-21T16:00:39;9.50;99.90
12841;DHT22;6487;48.626;12.486;2023-11-21T16:03:08;9.60;99.90
12841;DHT22;6487;48.626;12.486;2023-11-21T16:05:40;9.60;99.90